Time;durP1;ratioP1;P1;durP2;ratioP2;P2;SDS_P1;SDS_P2;PMS_P1;PMS_P2;Temp;Humidity;BMP_temperature;BMP_pressure;BME280_temperature;BME280_humidity;BME280_pressure;Samples;Min_cycle;Max_cycle;Signal;HPM_P1;HPM_P2
2022/06/08 00:00:00;;;;;;;6.13;4.77;;;16.00;99.90;;;;;;5053776;28;20271;-64
2022/06/08 00:02:32;;;;;;;5.67;5.13;;;16.10;1.00;;;;;;5059815;28;20247;-65
2022/06/08 00:05:00;;;;;;;5.33;4.83;;;16.10;1.00;;;;;;5059410;28;20195;-65
2022/06/08 00:07:27;;;;;;;5.90;5.30;;;16.00;1.00;;;;;;5056767;28;20218;-65
2022/06/08 00:09:54;;;;;;;7.27;5.40;;;15.90;1.00;;;;;;5041784;28;20203;-65
2022/06/08 00:12:21;;;;;;;6.27;5.67;;;15.90;1.00;;;;;;5042864;28;20207;-65
2022/06/08 00:14:48;;;;;;;5.90;5.40;;;15.90;1.00;;;;;;5043242;28;20258;-64
2022/06/08 00:17:15;;;;;;;6.20;5.60;;;15.90;1.00;;;;;;5040064;28;20940;-65
2022/06/08 00:19:42;;;;;;;6.87;6.27;;;15.90;1.00;;;;;;5059112;28;20286;-64
2022/06/08 00:22:10;;;;;;;6.23;5.70;;;15.80;30.00;;;;;;5048601;28;20191;-64
2022/06/08 00:24:37;;;;;;;6.80;6.20;;;15.90;1.00;;;;;;5060627;28;20206;-64
2022/06/08 00:27:08;;;;;;;6.63;6.03;;;15.90;19.90;;;;;;5058448;28;20563;-65
2022/06/08 00:29:36;;;;;;;7.43;6.70;;;15.80;99.90;;;;;;5037458;28;20200;-64
2022/06/08 00:32:03;;;;;;;7.20;6.40;;;15.80;99.90;;;;;;5050411;28;20194;-66
2022/06/08 00:34:30;;;;;;;8.30;6.70;;;15.70;99.90;;;;;;5043672;28;20200;-64
2022/06/08 00:36:58;;;;;;;11.20;6.90;;;15.60;1.00;;;;;;5040463;28;20568;-65
2022/06/08 00:39:24;;;;;;;7.97;7.10;;;15.60;1.00;;;;;;5058165;28;20215;-64
2022/06/08 00:41:55;;;;;;;9.00;8.00;;;15.60;1.00;;;;;;5049794;28;20202;-64
2022/06/08 00:44:24;;;;;;;8.70;7.77;;;15.50;1.00;;;;;;5042413;28;20196;-65
2022/06/08 00:46:54;;;;;;;11.33;9.63;;;15.50;1.00;;;;;;5058142;28;20209;-64
2022/06/08 00:49:42;;;;;;;10.33;9.43;;;15.50;1.00;;;;;;5054961;28;22985;-65
2022/06/08 00:52:10;;;;;;;10.97;9.97;;;15.40;1.00;;;;;;5055532;28;20187;-64
2022/06/08 00:54:44;;;;;;;11.10;10.10;;;15.30;99.90;;;;;;5049211;28;20620;-64
2022/06/08 00:57:19;;;;;;;11.57;10.43;;;15.30;99.90;;;;;;5043776;28;20207;-64
2022/06/08 01:00:12;;;;;;;12.57;11.37;;;15.30;99.90;;;;;;5031555;28;20215;-65
2022/06/08 01:02:40;;;;;;;12.93;11.63;;;15.30;99.90;;;;;;5030810;28;20215;-65
2022/06/08 01:05:20;;;;;;;15.47;12.97;;;15.20;1.00;;;;;;5031195;28;20206;-65
2022/06/08 01:07:51;;;;;;;14.50;13.00;;;15.20;1.00;;;;;;5055706;28;20248;-64
2022/06/08 01:10:23;;;;;;;15.30;13.33;;;15.20;1.00;;;;;;5030790;28;20237;-64
2022/06/08 01:12:51;;;;;;;15.77;14.17;;;15.20;1.00;;;;;;5042195;28;20682;-65
2022/06/08 01:15:23;;;;;;;15.10;13.60;;;15.20;99.90;;;;;;5046963;28;20833;-65
2022/06/08 01:17:50;;;;;;;16.37;14.70;;;15.20;99.90;;;;;;5048578;28;20793;-66
2022/06/08 01:20:19;;;;;;;16.77;15.07;;;15.20;1.00;;;;;;5039836;28;20227;-65
2022/06/08 01:22:47;;;;;;;19.23;15.63;;;15.20;99.90;;;;;;5037965;28;20195;-65
2022/06/08 01:25:15;;;;;;;17.77;15.97;;;15.20;99.90;;;;;;5059243;28;20199;-63
2022/06/08 01:28:18;;;;;;;18.40;16.40;;;15.20;99.90;;;;;;5047307;28;20211;-65
2022/06/08 01:30:48;;;;;;;19.53;17.47;;;15.20;99.90;;;;;;5037712;28;20199;-64
2022/06/08 01:33:22;;;;;;;18.30;16.40;;;15.20;99.90;;;;;;5042782;28;20649;-65
2022/06/08 01:35:49;;;;;;;20.70;18.13;;;15.20;1.00;;;;;;5059795;28;20223;-64
2022/06/08 01:38:54;;;;;;;19.77;17.67;;;15.20;1.00;;;;;;5039709;28;20223;-65
2022/06/08 01:41:43;;;;;;;34.97;20.13;;;15.20;1.00;;;;;;5046839;28;21030;-67
2022/06/08 01:47:57;;;;;;;27.90;21.37;;;15.20;99.90;;;;;;4960135;28;20206;-65
2022/06/08 01:50:56;;;;;;;24.60;20.57;;;15.20;99.90;;;;;;4974869;28;20237;-64
2022/06/08 01:53:38;;;;;;;28.10;21.60;;;15.30;99.90;;;;;;5050248;28;20219;-66
2022/06/08 01:56:33;;;;;;;25.40;22.53;;;15.20;99.90;;;;;;5034522;28;20200;-66
2022/06/08 01:59:21;;;;;;;30.23;23.37;;;15.20;99.90;;;;;;5025943;28;20688;-66
2022/06/08 02:01:54;;;;;;;26.20;23.17;;;15.20;99.90;;;;;;5041384;28;20562;-66
2022/06/08 02:04:35;;;;;;;29.77;24.27;;;15.20;99.90;;;;;;5048602;28;20195;-66
2022/06/08 02:07:11;;;;;;;26.63;23.73;;;15.20;99.90;;;;;;5059961;28;20183;-66
2022/06/08 02:09:52;;;;;;;28.20;24.07;;;15.20;99.90;;;;;;5057539;28;20661;-66
2022/06/08 02:12:21;;;;;;;29.90;25.00;;;15.20;99.90;;;;;;5024559;28;20248;-65
2022/06/08 02:14:56;;;;;;;31.43;24.27;;;15.20;99.90;;;;;;5039495;28;20237;-64
2022/06/08 02:17:52;;;;;;;27.63;24.10;;;15.20;99.90;;;;;;5031261;28;20530;-63
2022/06/08 02:20:54;;;;;;;29.13;24.70;;;15.20;99.90;;;;;;5040859;28;20652;-64
2022/06/08 02:23:49;;;;;;;28.20;24.43;;;15.20;99.90;;;;;;5034840;28;20215;-64
2022/06/08 02:26:26;;;;;;;29.47;24.23;;;15.20;99.90;;;;;;5041885;28;20221;-65
2022/06/08 02:28:59;;;;;;;29.43;24.27;;;15.30;99.90;;;;;;5039173;28;20191;-64
2022/06/08 02:31:34;;;;;;;29.90;26.67;;;15.30;99.90;;;;;;5048709;28;20257;-64
2022/06/08 02:34:32;;;;;;;29.57;25.47;;;15.30;99.90;;;;;;5040403;28;20197;-66
2022/06/08 02:37:12;;;;;;;31.97;26.73;;;15.30;60.80;;;;;;5036927;28;20254;-64
2022/06/08 02:40:07;;;;;;;30.83;25.80;;;15.30;1.00;;;;;;5041719;28;20238;-64
2022/06/08 02:42:51;;;;;;;30.37;25.80;;;15.30;90.10;;;;;;5037006;28;20199;-65
2022/06/08 02:45:26;;;;;;;28.70;25.67;;;15.30;1.00;;;;;;5038451;28;20561;-65
2022/06/08 02:48:00;;;;;;;29.83;25.20;;;15.40;6.60;;;;;;5039601;28;20706;-65
2022/06/08 02:50:30;;;;;;;27.63;24.67;;;15.40;1.00;;;;;;5037631;28;20190;-66
2022/06/08 02:53:16;;;;;;;28.50;24.40;;;15.30;50.40;;;;;;5032194;28;20207;-66
2022/06/08 02:55:55;;;;;;;28.17;25.17;;;15.30;99.90;;;;;;5042829;28;20192;-65
2022/06/08 02:58:48;;;;;;;28.50;25.40;;;15.20;99.90;;;;;;5047105;28;20653;-66
2022/06/08 03:01:25;;;;;;;32.37;25.47;;;15.20;99.90;;;;;;5038105;28;20227;-65
2022/06/08 03:03:58;;;;;;;30.33;25.53;;;15.20;99.90;;;;;;5048775;28;20199;-65
2022/06/08 03:06:33;;;;;;;29.83;26.60;;;15.20;99.90;;;;;;5049286;28;20611;-65
2022/06/08 03:09:05;;;;;;;28.83;25.70;;;15.20;99.90;;;;;;5056176;28;20195;-65
2022/06/08 03:11:41;;;;;;;28.03;24.97;;;15.20;99.90;;;;;;5043424;28;20192;-65
2022/06/08 03:14:10;;;;;;;29.33;26.23;;;15.20;99.90;;;;;;5056975;28;20207;-64
2022/06/08 03:16:50;;;;;;;32.47;26.53;;;15.20;99.90;;;;;;5043475;28;20195;-65
2022/06/08 03:19:17;;;;;;;30.33;27.00;;;15.10;99.90;;;;;;5058557;28;20191;-64
2022/06/08 03:21:45;;;;;;;29.07;24.87;;;14.90;1.00;;;;;;5048023;28;20825;-64
2022/06/08 03:24:13;;;;;;;31.80;27.53;;;14.90;1.00;;;;;;5033426;28;20199;-65
2022/06/08 03:26:44;;;;;;;34.17;28.23;;;14.90;1.00;;;;;;5039711;28;20199;-64
2022/06/08 03:29:13;;;;;;;33.73;28.23;;;14.90;1.00;;;;;;5050815;28;20258;-66
2022/06/08 03:31:40;;;;;;;32.00;27.87;;;14.90;1.00;;;;;;5040728;28;20217;-65
2022/06/08 03:34:07;;;;;;;31.80;27.37;;;14.90;1.00;;;;;;5041561;28;20187;-65
2022/06/08 03:36:34;;;;;;;34.30;28.07;;;14.80;1.00;;;;;;5056330;28;20191;-64
2022/06/08 03:39:04;;;;;;;33.17;27.17;;;14.80;1.00;;;;;;5055618;28;20657;-65
2022/06/08 03:41:33;;;;;;;32.00;26.90;;;14.70;1.00;;;;;;5055857;28;20208;-65
2022/06/08 03:44:00;;;;;;;32.77;27.43;;;14.80;1.00;;;;;;5056064;28;20188;-65
2022/06/08 03:46:28;;;;;;;32.90;27.23;;;14.80;1.00;;;;;;5055465;28;20271;-65
2022/06/08 03:48:56;;;;;;;34.80;28.57;;;14.70;1.00;;;;;;5038569;28;20203;-65
2022/06/08 03:51:24;;;;;;;30.33;26.00;;;14.80;1.00;;;;;;5056201;28;21213;-64
2022/06/08 03:53:55;;;;;;;31.93;26.70;;;14.80;1.00;;;;;;5037660;28;20231;-65
2022/06/08 03:56:25;;;;;;;29.93;26.27;;;14.90;1.00;;;;;;5056469;28;21880;-65
2022/06/08 03:58:53;;;;;;;34.33;26.37;;;14.90;99.90;;;;;;5052076;28;20202;-64
2022/06/08 04:01:23;;;;;;;29.27;25.77;;;15.10;1.00;;;;;;5046511;28;20288;-65
2022/06/08 04:03:55;;;;;;;24.70;22.20;;;15.40;99.90;;;;;;5039916;28;20253;-65
2022/06/08 04:06:25;;;;;;;22.90;20.57;;;15.70;76.00;;;;;;5041531;28;20198;-65
2022/06/08 04:08:54;;;;;;;21.67;19.48;;;16.20;1.00;;;;;;5039507;28;20318;-64
2022/06/08 04:11:22;;;;;;;21.23;19.02;;;16.40;1.00;;;;;;5041049;28;20659;-65
2022/06/08 04:13:50;;;;;;;22.20;19.85;;;16.10;1.00;;;;;;5024977;28;20226;-65
2022/06/08 04:16:20;;;;;;;20.48;18.48;;;15.80;93.90;;;;;;5046654;28;20682;-66
2022/06/08 04:18:48;;;;;;;19.48;17.55;;;16.10;1.00;;;;;;5040536;28;20203;-65
2022/06/08 04:21:16;;;;;;;19.85;17.83;;;16.30;1.00;;;;;;5047324;28;20238;-65
2022/06/08 04:23:51;;;;;;;19.15;17.25;;;16.50;1.00;;;;;;5039782;28;20195;-64
2022/06/08 04:26:21;;;;;;;19.15;16.55;;;16.80;99.90;;;;;;5041631;28;20188;-66
2022/06/08 04:28:53;;;;;;;18.20;16.17;;;17.30;1.00;;;;;;5038588;28;20211;-64
2022/06/08 04:31:20;;;;;;;16.83;15.23;;;17.40;1.00;;;;;;5039770;28;20211;-63
2022/06/08 04:33:53;;;;;;;18.15;16.35;;;17.80;1.00;;;;;;5042442;28;20258;-62
2022/06/08 04:36:26;;;;;;;18.60;16.58;;;17.70;1.00;;;;;;5039247;28;20199;-63
2022/06/08 04:38:54;;;;;;;17.23;15.50;;;18.10;1.00;;;;;;5028453;28;20268;-66
2022/06/08 04:41:22;;;;;;;16.75;15.00;;;18.40;99.90;;;;;;5038254;28;20309;-65
2022/06/08 04:43:53;;;;;;;18.23;15.05;;;18.60;99.90;;;;;;5033806;28;20203;-65
2022/06/08 04:46:21;;;;;;;17.00;15.35;;;18.20;1.00;;;;;;5031379;28;20395;-67
2022/06/08 04:48:51;;;;;;;16.30;14.75;;;18.40;99.90;;;;;;5023684;28;20286;-66
2022/06/08 04:51:22;;;;;;;15.45;13.95;;;18.70;99.90;;;;;;5056261;28;20183;-66
2022/06/08 04:53:51;;;;;;;19.08;15.68;;;18.90;99.90;;;;;;5037780;28;20195;-66
2022/06/08 04:56:19;;;;;;;17.00;15.27;;;18.90;99.90;;;;;;5043812;28;20989;-66
2022/06/08 04:58:50;;;;;;;15.48;13.85;;;19.00;99.90;;;;;;5040114;28;20202;-65
2022/06/08 05:01:17;;;;;;;15.80;14.15;;;19.30;99.90;;;;;;5041216;28;20219;-65
2022/06/08 05:03:45;;;;;;;14.85;13.35;;;19.60;38.30;;;;;;5027866;28;20201;-65
2022/06/08 05:06:14;;;;;;;14.95;13.52;;;19.70;14.00;;;;;;5023797;28;20201;-64
2022/06/08 05:08:41;;;;;;;15.05;12.93;;;20.20;1.00;;;;;;5055394;28;20180;-64
2022/06/08 05:11:09;;;;;;;16.38;14.30;;;20.80;1.00;;;;;;5030705;28;20211;-65
2022/06/08 05:13:37;;;;;;;14.80;12.68;;;19.60;1.00;;;;;;5037630;28;20222;-64
2022/06/08 05:16:08;;;;;;;15.23;13.73;;;19.50;1.00;;;;;;5030230;28;20198;-65
2022/06/08 05:18:39;;;;;;;15.82;13.80;;;19.80;1.00;;;;;;5018830;28;20210;-64
2022/06/08 05:21:12;;;;;;;15.82;14.40;;;19.10;99.90;;;;;;5039328;28;20298;-64
2022/06/08 05:23:40;;;;;;;14.00;12.50;;;19.40;99.90;;;;;;5037699;28;20203;-65
2022/06/08 05:26:13;;;;;;;14.90;13.10;;;19.20;99.90;;;;;;5023962;28;20344;-65
2022/06/08 05:28:43;;;;;;;14.85;13.40;;;19.20;99.90;;;;;;5040860;28;20203;-65
2022/06/08 05:31:11;;;;;;;13.27;12.07;;;19.20;85.00;;;;;;5038807;28;20275;-67
2022/06/08 05:33:43;;;;;;;14.35;11.15;;;19.70;3.60;;;;;;5031907;28;20187;-66
2022/06/08 05:36:16;;;;;;;12.50;11.25;;;20.50;1.00;;;;;;5031728;28;20203;-65
2022/06/08 05:38:46;;;;;;;12.68;10.80;;;21.20;1.00;;;;;;5040927;28;20226;-64
2022/06/08 05:41:13;;;;;;;12.30;11.02;;;21.50;1.00;;;;;;5037154;28;20226;-66
2022/06/08 05:43:40;;;;;;;11.45;10.15;;;21.50;1.00;;;;;;5056305;28;20196;-66
2022/06/08 05:46:09;;;;;;;10.88;9.77;;;21.00;1.00;;;;;;5040150;28;20207;-66
2022/06/08 05:48:39;;;;;;;9.95;9.02;;;21.40;1.00;;;;;;5043465;28;20200;-65
2022/06/08 05:51:09;;;;;;;10.93;9.20;;;22.30;1.00;;;;;;5053015;28;20286;-64
2022/06/08 05:53:39;;;;;;;9.63;8.63;;;21.20;1.00;;;;;;5035654;28;20765;-65
2022/06/08 05:56:06;;;;;;;9.40;7.88;;;21.10;1.00;;;;;;5038844;28;20681;-66
2022/06/08 05:58:37;;;;;;;9.40;8.43;;;21.10;1.00;;;;;;5037552;28;20199;-66
2022/06/08 06:01:05;;;;;;;10.60;7.75;;;21.50;1.00;;;;;;5052584;28;20702;-65
2022/06/08 06:03:32;;;;;;;9.18;7.25;;;21.30;1.00;;;;;;5048573;28;20294;-65
2022/06/08 06:05:59;;;;;;;8.25;6.65;;;21.80;1.00;;;;;;5050966;28;20203;-67
2022/06/08 06:08:26;;;;;;;7.43;6.13;;;22.20;1.00;;;;;;5033749;28;20195;-64
2022/06/08 06:10:57;;;;;;;7.13;5.60;;;22.50;1.00;;;;;;5040905;28;20683;-64
2022/06/08 06:13:32;;;;;;;7.28;6.57;;;23.40;99.90;;;;;;5038216;28;20199;-65
2022/06/08 06:16:00;;;;;;;7.28;6.63;;;23.20;99.90;;;;;;5049478;28;20195;-65
2022/06/08 06:18:29;;;;;;;6.93;5.63;;;22.80;99.90;;;;;;5023859;28;20207;-65
2022/06/08 06:21:06;;;;;;;7.55;5.70;;;23.40;99.90;;;;;;5035720;28;20249;-65
2022/06/08 06:24:09;;;;;;;7.05;5.97;;;23.80;99.90;;;;;;4957848;28;20206;-64
2022/06/08 06:26:54;;;;;;;8.23;5.57;;;22.30;1.00;;;;;;5025030;28;20199;-65
2022/06/08 06:29:40;;;;;;;6.35;5.07;;;22.20;1.00;;;;;;5038990;28;20285;-65
2022/06/08 06:32:44;;;;;;;5.43;4.80;;;22.60;99.90;;;;;;5039500;28;20207;-65
2022/06/08 06:35:19;;;;;;;5.10;4.45;;;23.80;99.90;;;;;;5043243;28;20245;-66
2022/06/08 06:37:46;;;;;;;4.72;4.22;;;24.00;99.90;;;;;;5041635;28;20309;-66
2022/06/08 06:40:14;;;;;;;4.82;4.32;;;24.70;99.90;;;;;;5039497;28;23439;-66
2022/06/08 06:42:42;;;;;;;5.80;3.90;;;23.60;99.90;;;;;;5038175;28;20194;-67
2022/06/08 06:45:47;;;;;;;5.72;4.07;;;24.50;99.90;;;;;;4997238;28;20300;-67
2022/06/08 06:48:37;;;;;;;8.40;3.72;;;23.60;99.90;;;;;;4972381;28;20201;-68
2022/06/08 06:51:07;;;;;;;3.85;3.28;;;23.80;99.90;;;;;;5022158;28;20256;-67
2022/06/08 06:53:35;;;;;;;4.20;3.80;;;22.70;99.90;;;;;;5038399;28;20206;-68
2022/06/08 06:56:03;;;;;;;3.63;3.33;;;22.80;99.90;;;;;;5044671;28;20204;-68
2022/06/08 06:58:48;;;;;;;3.30;2.97;;;22.00;99.90;;;;;;5041967;28;20274;-67
2022/06/08 07:01:17;;;;;;;9.35;3.58;;;21.50;1.00;;;;;;5052524;28;20233;-67
2022/06/08 07:03:45;;;;;;;4.10;3.08;;;22.10;1.00;;;;;;5043846;28;20200;-68
2022/06/08 07:06:13;;;;;;;5.30;3.08;;;22.70;99.90;;;;;;5045218;28;20291;-65
2022/06/08 07:08:40;;;;;;;4.72;3.50;;;23.20;99.90;;;;;;5038848;28;20207;-65
2022/06/08 07:13:59;;;;;;;4.65;3.25;;;22.80;99.90;;;;;;5042122;28;20214;-65
2022/06/08 07:16:27;;;;;;;4.95;2.70;;;22.80;99.90;;;;;;5049969;28;20281;-65
2022/06/08 07:18:54;;;;;;;3.60;3.20;;;23.60;99.90;;;;;;5038424;28;20204;-65
2022/06/08 07:21:21;;;;;;;5.00;3.35;;;23.80;99.90;;;;;;5058131;28;20270;-65
2022/06/08 07:23:48;;;;;;;3.40;3.10;;;23.50;99.90;;;;;;5058389;28;20244;-65
2022/06/08 07:26:17;;;;;;;4.70;3.00;;;24.60;99.90;;;;;;5059775;28;20651;-65
2022/06/08 07:28:44;;;;;;;2.85;2.50;;;24.30;99.90;;;;;;5057230;28;20187;-65
2022/06/08 07:31:13;;;;;;;3.45;3.05;;;25.00;99.90;;;;;;5050357;28;20195;-65
2022/06/08 07:33:40;;;;;;;2.42;2.10;;;24.20;99.90;;;;;;5057579;28;20577;-63
2022/06/08 07:36:08;;;;;;;5.22;2.42;;;25.50;99.90;;;;;;5054844;28;20199;-64
2022/06/08 07:38:35;;;;;;;2.78;2.15;;;26.60;99.90;;;;;;5054842;28;20219;-64
2022/06/08 07:41:02;;;;;;;3.28;2.38;;;27.00;99.90;;;;;;5055706;28;20268;-65
2022/06/08 07:43:30;;;;;;;2.60;2.38;;;26.20;99.90;;;;;;5040730;28;20196;-65
2022/06/08 07:45:57;;;;;;;2.63;2.08;;;27.40;99.90;;;;;;5040292;28;20299;-65
2022/06/08 07:51:10;;;;;;;5.43;2.08;;;27.30;99.90;;;;;;5053305;28;20246;-65
2022/06/08 07:53:39;;;;;;;2.25;2.05;;;27.40;99.90;;;;;;5054468;28;20214;-65
2022/06/08 07:56:06;;;;;;;3.58;2.22;;;28.60;99.90;;;;;;5052370;28;20258;-66
2022/06/08 07:58:34;;;;;;;3.45;2.03;;;28.70;99.90;;;;;;5038450;28;20674;-65
2022/06/08 08:01:01;;;;;;;2.80;1.80;;;29.50;99.90;;;;;;5035996;28;20305;-65
2022/06/08 08:03:28;;;;;;;3.38;1.95;;;27.70;99.90;;;;;;5055529;28;20620;-65
2022/06/08 08:05:55;;;;;;;3.00;1.75;;;26.00;99.90;;;;;;5056717;28;20188;-65
2022/06/08 08:08:22;;;;;;;5.07;1.60;;;26.30;99.90;;;;;;5045460;28;20204;-65
2022/06/08 08:10:49;;;;;;;3.03;1.50;;;27.00;99.90;;;;;;5050375;28;20290;-65
2022/06/08 08:13:16;;;;;;;1.83;1.30;;;27.80;99.90;;;;;;5034472;28;20246;-64
2022/06/08 08:15:44;;;;;;;3.80;1.50;;;28.60;99.90;;;;;;5050268;28;20240;-65
2022/06/08 08:18:12;;;;;;;1.40;0.90;;;30.70;99.90;;;;;;5029086;28;20188;-65
2022/06/08 08:20:40;;;;;;;2.20;1.15;;;27.40;99.90;;;;;;5028642;28;20238;-65
2022/06/08 08:23:07;;;;;;;2.22;1.40;;;28.50;99.90;;;;;;5045083;28;20954;-65
2022/06/08 08:25:35;;;;;;;2.22;1.30;;;28.80;99.90;;;;;;5046486;28;20252;-64
2022/06/08 08:28:03;;;;;;;2.38;1.05;;;26.60;99.90;;;;;;5045103;28;20195;-64
2022/06/08 08:30:32;;;;;;;1.92;1.30;;;24.10;99.90;;;;;;5045523;28;20203;-64
2022/06/08 08:33:00;;;;;;;2.30;1.20;;;26.10;99.90;;;;;;5043890;28;20669;-64
2022/06/08 08:35:28;;;;;;;2.03;1.10;;;25.90;99.90;;;;;;5057167;28;20201;-64
2022/06/08 08:37:56;;;;;;;1.45;1.27;;;25.60;99.90;;;;;;5056723;28;20784;-65
2022/06/08 08:40:30;;;;;;;1.67;1.15;;;27.40;99.90;;;;;;5038176;28;21124;-65
2022/06/08 08:42:57;;;;;;;1.85;0.90;;;28.90;99.90;;;;;;5055823;28;20633;-65
2022/06/08 08:45:25;;;;;;;1.48;1.10;;;27.30;99.90;;;;;;5045852;28;20203;-64
2022/06/08 08:48:01;;;;;;;1.90;0.75;;;28.80;99.90;;;;;;5038218;28;20214;-65
2022/06/08 08:50:49;;;;;;;1.60;0.88;;;29.40;99.90;;;;;;5055948;28;20215;-66
2022/06/08 08:53:39;;;;;;;2.78;1.00;;;27.10;99.90;;;;;;5035383;28;20914;-65
2022/06/08 08:56:15;;;;;;;0.93;0.77;;;26.50;99.90;;;;;;5036272;28;20203;-65
2022/06/08 08:58:47;;;;;;;2.20;1.00;;;25.20;99.90;;;;;;5045724;28;20219;-66
2022/06/08 09:01:25;;;;;;;1.15;0.80;;;25.80;99.90;;;;;;5056762;28;20804;-65
2022/06/08 09:04:05;;;;;;;2.72;0.90;;;24.70;99.90;;;;;;5051225;28;21151;-66
2022/06/08 09:06:33;;;;;;;1.40;1.00;;;24.20;99.90;;;;;;5056687;28;20219;-65
2022/06/08 09:09:05;;;;;;;1.17;0.70;;;25.00;99.90;;;;;;5040819;28;20199;-66
2022/06/08 09:11:36;;;;;;;1.50;0.90;;;25.00;99.90;;;;;;5037631;28;20200;-65
2022/06/08 09:15:00;;;;;;;1.30;0.80;;;24.90;99.90;;;;;;5053511;28;20199;-65
2022/06/08 09:17:49;;;;;;;2.65;0.80;;;25.50;99.90;;;;;;5022226;28;20606;-66
2022/06/08 09:20:16;;;;;;;2.88;0.80;;;24.60;99.90;;;;;;5052842;28;20234;-66
2022/06/08 09:22:49;;;;;;;1.25;0.90;;;25.50;99.90;;;;;;5054837;28;20210;-66
2022/06/08 09:25:27;;;;;;;3.17;0.90;;;26.70;99.90;;;;;;5027204;28;20862;-63
2022/06/08 09:27:58;;;;;;;2.42;0.82;;;26.70;99.90;;;;;;5052096;28;20225;-66
2022/06/08 09:30:28;;;;;;;2.55;1.02;;;27.50;99.90;;;;;;5054647;28;20248;-66
2022/06/08 09:33:35;;;;;;;2.33;0.88;;;27.30;99.90;;;;;;5038679;28;20215;-65
2022/06/08 09:36:07;;;;;;;0.90;0.75;;;27.70;99.90;;;;;;5037984;28;21156;-66
2022/06/08 09:38:40;;;;;;;1.35;0.95;;;26.40;99.90;;;;;;5042511;28;20497;-65
2022/06/08 09:41:25;;;;;;;1.38;1.05;;;27.00;99.90;;;;;;5043230;28;20195;-65
2022/06/08 09:44:15;;;;;;;2.10;1.05;;;26.40;99.90;;;;;;5051868;28;20195;-63
2022/06/08 09:53:05;;;;;;;1.80;1.05;;;26.60;99.90;;;;;;5042585;28;20666;-65
2022/06/08 09:55:32;;;;;;;0.70;0.68;;;26.20;99.90;;;;;;5052248;28;20244;-65
2022/06/08 09:58:14;;;;;;;1.42;0.95;;;26.80;99.90;;;;;;5054773;28;20195;-63
2022/06/08 10:01:15;;;;;;;1.60;0.90;;;27.50;99.90;;;;;;5053088;28;20199;-65
2022/06/08 10:04:15;;;;;;;1.23;1.02;;;28.20;99.90;;;;;;5037895;28;20207;-66
2022/06/08 10:06:52;;;;;;;1.40;1.10;;;27.60;99.90;;;;;;5009920;28;20234;-65
2022/06/08 10:09:22;;;;;;;1.90;1.00;;;27.70;99.90;;;;;;5058536;28;20190;-65
2022/06/08 10:12:01;;;;;;;3.00;1.00;;;27.00;99.90;;;;;;5039758;28;20435;-66
2022/06/08 10:14:36;;;;;;;2.13;1.20;;;26.50;99.90;;;;;;5032801;28;20626;-65
2022/06/08 10:17:27;;;;;;;3.38;0.90;;;26.70;99.90;;;;;;5060426;28;20193;-65
2022/06/08 10:20:13;;;;;;;2.10;0.93;;;27.00;99.90;;;;;;5055330;28;20226;-65
2022/06/08 10:22:49;;;;;;;2.60;1.10;;;27.40;99.90;;;;;;5057528;28;20204;-66
2022/06/08 10:25:21;;;;;;;2.53;1.30;;;27.30;99.90;;;;;;5055019;28;20188;-65
2022/06/08 10:28:02;;;;;;;1.58;1.10;;;25.90;99.90;;;;;;5037222;28;20219;-65
2022/06/08 10:30:41;;;;;;;3.40;1.08;;;25.60;99.90;;;;;;5047219;28;20187;-65
2022/06/08 10:33:25;;;;;;;3.22;1.08;;;26.90;99.90;;;;;;5056043;28;20289;-65
2022/06/08 10:35:56;;;;;;;5.03;1.27;;;28.70;99.90;;;;;;5038275;28;20206;-65
2022/06/08 10:38:31;;;;;;;2.00;1.13;;;26.80;99.90;;;;;;5057971;28;20223;-65
2022/06/08 10:41:01;;;;;;;4.03;1.10;;;26.70;99.90;;;;;;5060615;28;20182;-65
2022/06/08 10:43:31;;;;;;;3.00;1.10;;;26.20;99.90;;;;;;5049124;28;20264;-65
2022/06/08 10:46:01;;;;;;;2.33;1.13;;;25.90;99.90;;;;;;5042195;28;20230;-65
2022/06/08 10:48:48;;;;;;;3.17;1.10;;;26.20;99.90;;;;;;5046775;28;20751;-65
2022/06/08 10:51:15;;;;;;;5.05;1.13;;;24.40;99.90;;;;;;5040252;28;20230;-65
2022/06/08 10:56:55;;;;;;;2.15;1.00;;;24.80;99.90;;;;;;5041494;28;20196;-64
2022/06/08 10:59:27;;;;;;;2.08;1.15;;;23.80;99.90;;;;;;5044925;28;20639;-64
2022/06/08 11:02:01;;;;;;;2.97;1.17;;;23.90;99.90;;;;;;5060951;28;20203;-65
2022/06/08 11:04:31;;;;;;;1.35;1.02;;;23.30;99.90;;;;;;5059363;28;20199;-64
2022/06/08 11:07:07;;;;;;;4.38;1.10;;;23.20;99.90;;;;;;5054208;28;20233;-64
2022/06/08 11:09:36;;;;;;;5.60;1.02;;;22.90;99.90;;;;;;5039854;28;20282;-64
2022/06/08 11:12:16;;;;;;;3.17;1.20;;;22.70;99.90;;;;;;5033235;28;20283;-64
2022/06/08 11:14:43;;;;;;;2.97;1.23;;;22.80;99.90;;;;;;5058451;28;20241;-64
2022/06/08 11:17:45;;;;;;;3.15;1.42;;;22.80;99.90;;;;;;5050005;28;20203;-64
2022/06/08 11:20:18;;;;;;;3.67;1.08;;;22.80;99.90;;;;;;5055910;28;20335;-64
2022/06/08 11:23:18;;;;;;;4.82;1.17;;;22.60;99.90;;;;;;5058497;28;20215;-64
2022/06/08 11:25:50;;;;;;;2.15;1.30;;;23.10;99.90;;;;;;5044348;28;20239;-64
2022/06/08 11:28:44;;;;;;;2.80;1.48;;;23.60;99.90;;;;;;5044584;28;20207;-64
2022/06/08 11:31:31;;;;;;;2.40;1.10;;;23.90;99.90;;;;;;5058341;28;20915;-64
2022/06/08 11:34:19;;;;;;;4.22;1.30;;;23.50;99.90;;;;;;5058312;28;20202;-64
2022/06/08 11:37:14;;;;;;;10.38;1.48;;;23.90;99.90;;;;;;5039937;28;20195;-65
2022/06/08 11:40:04;;;;;;;3.15;1.30;;;24.10;99.90;;;;;;5042133;28;20802;-64
2022/06/08 11:42:35;;;;;;;1.63;1.02;;;24.60;99.90;;;;;;5042251;28;20199;-65
2022/06/08 11:45:18;;;;;;;1.30;0.90;;;25.00;99.90;;;;;;5057716;28;20195;-65
2022/06/08 11:47:56;;;;;;;4.03;1.00;;;24.60;99.90;;;;;;5060308;28;21104;-65
2022/06/08 11:50:39;;;;;;;3.60;0.90;;;24.60;99.90;;;;;;5060868;28;20196;-65
2022/06/08 11:53:14;;;;;;;4.43;1.45;;;24.50;99.90;;;;;;5039074;28;20210;-64
2022/06/08 11:55:54;;;;;;;1.88;1.00;;;24.20;99.90;;;;;;5061180;28;20203;-64
2022/06/08 11:58:27;;;;;;;1.95;1.10;;;23.90;99.90;;;;;;5059200;28;20200;-63
2022/06/08 12:01:11;;;;;;;1.33;0.95;;;23.70;99.90;;;;;;5056563;28;20226;-64
2022/06/08 12:03:41;;;;;;;2.30;0.88;;;23.70;99.90;;;;;;5042506;28;20215;-64
2022/06/08 12:06:22;;;;;;;3.22;1.27;;;23.30;99.90;;;;;;5060536;28;20997;-64
2022/06/08 12:08:52;;;;;;;2.53;1.00;;;23.40;99.90;;;;;;5060151;28;20215;-64
2022/06/08 12:11:22;;;;;;;2.33;1.27;;;23.50;99.90;;;;;;5043591;28;20183;-64
2022/06/08 12:13:57;;;;;;;4.03;1.13;;;23.60;99.90;;;;;;5054626;28;20195;-64
2022/06/08 12:16:27;;;;;;;2.33;1.25;;;23.80;99.90;;;;;;5056917;28;20194;-64
2022/06/08 12:18:59;;;;;;;4.80;1.10;;;23.70;99.90;;;;;;5030853;28;20211;-65
2022/06/08 12:21:36;;;;;;;2.13;1.20;;;23.90;99.90;;;;;;5050873;28;20227;-65
2022/06/08 12:24:11;;;;;;;3.25;1.20;;;23.60;99.90;;;;;;5040568;28;20712;-65
2022/06/08 12:26:55;;;;;;;4.40;1.10;;;23.50;99.90;;;;;;5054092;28;20226;-63
2022/06/08 12:29:25;;;;;;;4.00;1.50;;;23.40;99.90;;;;;;5038553;28;20203;-64
2022/06/08 12:32:29;;;;;;;2.63;1.10;;;23.10;99.90;;;;;;5056350;28;20196;-64
2022/06/08 12:35:06;;;;;;;4.15;1.40;;;23.20;99.90;;;;;;5030330;28;20206;-64
2022/06/08 12:37:44;;;;;;;6.20;1.60;;;23.60;99.90;;;;;;5038844;28;20252;-64
2022/06/08 12:40:17;;;;;;;2.58;1.40;;;23.20;99.90;;;;;;5056203;28;20319;-63
2022/06/08 12:43:06;;;;;;;3.00;1.33;;;23.10;99.90;;;;;;5056937;28;20214;-64
2022/06/08 12:45:39;;;;;;;3.80;1.40;;;23.30;99.90;;;;;;5041256;28;20199;-64
2022/06/08 12:48:36;;;;;;;5.45;1.40;;;23.20;99.90;;;;;;5055559;28;20282;-64
2022/06/08 12:51:25;;;;;;;2.53;1.30;;;23.10;99.90;;;;;;5056372;28;20207;-64
2022/06/08 12:53:52;;;;;;;4.82;1.35;;;23.30;99.90;;;;;;5056322;28;20195;-63
2022/06/08 12:56:20;;;;;;;4.95;1.73;;;22.80;99.90;;;;;;5051407;28;20199;-63
2022/06/08 12:58:47;;;;;;;3.42;1.40;;;23.10;99.90;;;;;;5042998;28;20283;-63
2022/06/08 13:01:16;;;;;;;4.35;1.42;;;23.90;99.90;;;;;;5048384;28;20673;-64
2022/06/08 13:03:43;;;;;;;7.85;1.42;;;23.60;99.90;;;;;;5042268;28;20247;-66
2022/06/08 13:06:11;;;;;;;3.90;1.70;;;23.60;99.90;;;;;;5061600;28;20207;-64
2022/06/08 13:08:39;;;;;;;3.10;1.38;;;23.70;99.90;;;;;;5051972;28;20196;-65
2022/06/08 13:11:14;;;;;;;5.68;1.73;;;24.00;99.90;;;;;;5043636;28;20222;-65
2022/06/08 13:13:41;;;;;;;6.03;1.80;;;23.40;99.90;;;;;;5051863;28;20609;-64
2022/06/08 13:16:24;;;;;;;3.97;1.52;;;22.80;99.90;;;;;;5044859;28;20206;-65
2022/06/08 13:18:52;;;;;;;3.10;1.23;;;22.60;99.90;;;;;;5057360;28;20195;-64
2022/06/08 13:21:21;;;;;;;6.30;1.73;;;22.80;99.90;;;;;;5043902;28;20226;-64
2022/06/08 13:23:49;;;;;;;5.32;1.48;;;22.00;99.90;;;;;;5056909;28;20219;-66
2022/06/08 13:26:20;;;;;;;3.65;1.60;;;21.80;99.90;;;;;;5041196;28;20406;-64
2022/06/08 13:28:48;;;;;;;5.75;1.38;;;21.90;99.90;;;;;;5055633;28;20191;-64
2022/06/08 13:31:26;;;;;;;5.07;1.60;;;22.00;99.90;;;;;;5050934;28;20202;-64
2022/06/08 13:34:04;;;;;;;7.22;1.60;;;21.50;99.90;;;;;;5044251;28;20823;-64
2022/06/08 13:36:50;;;;;;;3.05;1.30;;;21.30;1.00;;;;;;5024349;28;20670;-64